createdAt,value
2023-05-25T00:01:00.483Z,98826.38
2023-05-25T00:03:49.547Z,98819.22
2023-05-25T00:06:41.124Z,98817.09
2023-05-25T00:09:28.636Z,98819.59
2023-05-25T00:12:16.699Z,98818.78
2023-05-25T00:15:07.497Z,98815.72
2023-05-25T00:17:56.059Z,98815.00
2023-05-25T00:20:47.452Z,98814.31
2023-05-25T00:23:35.202Z,98817.38
2023-05-25T00:26:22.974Z,98810.13
2023-05-25T00:29:11.289Z,98810.25
2023-05-25T00:32:00.780Z,98811.06
2023-05-25T00:34:48.309Z,98812.63
2023-05-25T00:37:35.796Z,98805.91
2023-05-25T00:40:23.837Z,98798.34
2023-05-25T00:43:12.433Z,98799.22
2023-05-25T00:46:00.278Z,98803.09
2023-05-25T00:48:49.320Z,98800.56
2023-05-25T00:51:37.838Z,98802.09
2023-05-25T00:54:25.784Z,98796.94
2023-05-25T00:57:17.810Z,98798.31
2023-05-25T01:00:11.496Z,98799.72
2023-05-25T01:03:02.075Z,98803.03
2023-05-25T01:05:56.174Z,98811.13
2023-05-25T01:08:52.730Z,98806.56
2023-05-25T01:11:45.353Z,98816.44
2023-05-25T01:14:36.274Z,98816.00
2023-05-25T01:17:24.197Z,98815.31
2023-05-25T01:20:13.056Z,98824.09
2023-05-25T01:23:11.878Z,98815.59
2023-05-25T01:26:04.133Z,98816.13
2023-05-25T01:28:55.868Z,98808.88
2023-05-25T01:31:44.468Z,98804.09
2023-05-25T01:34:34.183Z,98804.91
2023-05-25T01:37:32.097Z,98801.28
2023-05-25T01:40:21.347Z,98809.06
2023-05-25T01:43:09.212Z,98807.91
2023-05-25T01:46:10.850Z,98807.50
2023-05-25T01:49:13.518Z,98812.78
2023-05-25T01:52:13.691Z,98817.63
2023-05-25T01:55:08.345Z,98816.22
2023-05-25T01:58:06.467Z,98814.34
2023-05-25T02:00:55.542Z,98819.38
2023-05-25T02:03:44.771Z,98824.00
2023-05-25T02:06:32.420Z,98820.50
2023-05-25T02:09:19.887Z,98820.38
2023-05-25T02:12:08.474Z,98824.25
2023-05-25T02:14:58.244Z,98828.13
2023-05-25T02:17:45.663Z,98827.09
2023-05-25T02:20:33.727Z,98825.09
2023-05-25T02:23:21.714Z,98824.41
2023-05-25T02:26:09.497Z,98815.13
2023-05-25T02:29:01.890Z,98807.63
2023-05-25T02:31:51.344Z,98805.81
2023-05-25T02:34:38.884Z,98815.81
2023-05-25T02:37:26.502Z,98812.06
2023-05-25T02:40:14.696Z,98816.19
2023-05-25T02:43:02.741Z,98825.50
2023-05-25T02:45:50.616Z,98821.56
2023-05-25T02:48:39.897Z,98822.63
2023-05-25T02:51:27.902Z,98820.00
2023-05-25T02:54:17.141Z,98823.50
2023-05-25T02:57:05.221Z,98815.81
2023-05-25T02:59:52.806Z,98824.59
2023-05-25T03:02:40.690Z,98828.84
2023-05-25T03:05:30.091Z,98826.09
2023-05-25T03:08:17.632Z,98824.19
2023-05-25T03:11:05.071Z,98831.38
2023-05-25T03:13:53.595Z,98833.59
2023-05-25T03:16:41.177Z,98828.53
2023-05-25T03:19:29.033Z,98827.31
2023-05-25T03:22:17.929Z,98839.94
2023-05-25T03:25:06.478Z,98839.44
2023-05-25T03:27:54.237Z,98847.50
2023-05-25T03:30:42.168Z,98850.41
2023-05-25T03:33:29.841Z,98849.22
2023-05-25T03:36:17.949Z,98856.44
2023-05-25T03:39:07.398Z,98864.84
2023-05-25T03:41:56.074Z,98865.09
2023-05-25T03:44:43.857Z,98864.84
2023-05-25T03:47:31.870Z,98866.28
2023-05-25T03:50:19.404Z,98868.91
2023-05-25T03:53:07.223Z,98871.31
2023-05-25T03:55:56.649Z,98865.91
2023-05-25T03:58:44.716Z,98871.06
2023-05-25T04:01:32.052Z,98873.09
2023-05-25T04:04:19.767Z,98879.94
2023-05-25T04:07:07.291Z,98877.78
2023-05-25T04:09:54.802Z,98872.50
2023-05-25T04:12:44.095Z,98867.19
2023-05-25T04:15:34.559Z,98863.31
2023-05-25T04:18:22.532Z,98868.63
2023-05-25T04:21:10.366Z,98875.31
2023-05-25T04:23:57.736Z,98872.94
2023-05-25T04:26:46.212Z,98880.38
2023-05-25T04:29:35.483Z,98880.97
2023-05-25T04:32:23.911Z,98889.13
2023-05-25T04:35:11.636Z,98894.41
2023-05-25T04:38:00.703Z,98895.88
2023-05-25T04:40:48.620Z,98896.69
2023-05-25T04:43:36.224Z,98893.09
2023-05-25T04:46:25.622Z,98897.91
2023-05-25T04:49:14.301Z,98906.81
2023-05-25T04:52:01.847Z,98904.63
2023-05-25T04:54:49.385Z,98911.34
2023-05-25T04:57:37.066Z,98906.97
2023-05-25T05:00:24.959Z,98903.50
2023-05-25T05:03:14.540Z,98903.66
2023-05-25T05:06:02.103Z,98905.22
2023-05-25T05:08:49.821Z,98907.34
2023-05-25T05:11:37.582Z,98904.91
2023-05-25T05:14:25.164Z,98909.69
2023-05-25T05:17:13.056Z,98908.34
2023-05-25T05:20:02.062Z,98916.59
2023-05-25T05:22:49.639Z,98921.38
2023-05-25T05:25:38.089Z,98911.94
2023-05-25T05:28:27.435Z,98919.34
2023-05-25T05:31:17.352Z,98929.19
2023-05-25T05:34:05.602Z,98918.91
2023-05-25T05:36:58.486Z,98917.25
2023-05-25T05:39:49.363Z,98927.06
2023-05-25T05:42:36.793Z,98925.44
2023-05-25T05:45:24.396Z,98923.78
2023-05-25T05:48:12.040Z,98927.44
2023-05-25T05:50:59.586Z,98920.19
2023-05-25T05:53:48.383Z,98921.78
2023-05-25T05:56:35.975Z,98919.44
2023-05-25T05:59:24.168Z,98923.69
2023-05-25T06:02:12.184Z,98920.31
2023-05-25T06:05:01.281Z,98919.38
2023-05-25T06:07:49.573Z,98919.34
2023-05-25T06:10:38.953Z,98928.97
2023-05-25T06:13:26.911Z,98923.31
2023-05-25T06:16:14.457Z,98918.63
2023-05-25T06:19:02.255Z,98910.69
2023-05-25T06:21:49.989Z,98907.34
2023-05-25T06:24:37.633Z,98908.59
2023-05-25T06:27:26.651Z,98907.16
2023-05-25T06:30:14.697Z,98906.94
2023-05-25T06:33:02.221Z,98888.88
2023-05-25T06:35:51.042Z,98900.47
2023-05-25T06:38:38.715Z,98906.31
2023-05-25T06:41:26.367Z,98904.13
2023-05-25T06:44:15.453Z,98903.19
2023-05-25T06:47:03.685Z,98896.38
2023-05-25T06:49:51.610Z,98895.00
2023-05-25T06:52:39.404Z,98892.00
2023-05-25T06:55:27.028Z,98894.69
2023-05-25T06:58:14.588Z,98890.63
2023-05-25T07:01:04.497Z,98892.59
2023-05-25T07:03:53.223Z,98892.91
2023-05-25T07:06:40.902Z,98882.75
2023-05-25T07:09:28.959Z,98883.88
2023-05-25T07:12:16.744Z,98881.84
2023-05-25T07:15:13.323Z,98881.72
2023-05-25T07:18:02.368Z,98868.06
2023-05-25T07:20:50.127Z,98873.81
2023-05-25T07:23:37.703Z,98871.28
2023-05-25T07:26:25.807Z,98868.56
2023-05-25T07:29:13.749Z,98871.03
2023-05-25T07:32:01.884Z,98866.19
2023-05-25T07:34:50.638Z,98879.06
2023-05-25T07:37:38.633Z,98877.16
2023-05-25T07:40:26.208Z,98868.88
2023-05-25T07:43:14.024Z,98864.63
2023-05-25T07:46:02.472Z,98863.19
2023-05-25T07:48:50.430Z,98869.09
2023-05-25T07:51:39.496Z,98872.13
2023-05-25T07:54:27.037Z,98867.91
2023-05-25T07:57:14.646Z,98870.09
2023-05-25T08:00:02.391Z,98868.50
2023-05-25T08:02:50.769Z,98868.97
2023-05-25T08:05:38.760Z,98869.72
2023-05-25T08:08:53.283Z,98865.88
2023-05-25T08:11:41.669Z,98858.03
2023-05-25T08:14:29.586Z,98858.47
2023-05-25T08:17:29.228Z,98858.25
2023-05-25T08:20:16.972Z,98856.81
2023-05-25T08:23:06.029Z,98860.94
2023-05-25T08:25:54.893Z,98859.69
2023-05-25T08:28:42.412Z,98860.28
2023-05-25T08:31:30.065Z,98858.81
2023-05-25T08:34:18.386Z,98853.13
2023-05-25T08:37:06.188Z,98852.00
2023-05-25T08:39:53.904Z,98857.75
2023-05-25T08:42:44.536Z,98859.41
2023-05-25T08:45:34.910Z,98864.31
2023-05-25T08:48:40.147Z,98853.00
2023-05-25T08:51:37.069Z,98846.28
2023-05-25T08:54:31.282Z,98850.38
2023-05-25T08:57:26.921Z,98846.66
2023-05-25T09:00:20.136Z,98846.03
2023-05-25T09:03:14.859Z,98853.28
2023-05-25T09:06:03.117Z,98856.03
2023-05-25T09:08:51.822Z,98851.50
2023-05-25T09:11:42.275Z,98845.22
2023-05-25T09:14:45.652Z,98849.84
2023-05-25T09:17:37.377Z,98854.44
2023-05-25T09:20:31.467Z,98854.19
2023-05-25T09:23:20.146Z,98847.03
2023-05-25T09:26:08.830Z,98847.47
2023-05-25T09:28:57.076Z,98838.75
2023-05-25T09:31:45.257Z,98840.56
2023-05-25T09:34:34.897Z,98845.50
2023-05-25T09:37:25.419Z,98840.13
2023-05-25T09:40:15.392Z,98851.81
2023-05-25T09:43:05.969Z,98857.91
2023-05-25T09:45:55.800Z,98853.66
2023-05-25T09:48:43.757Z,98850.22
2023-05-25T09:51:33.675Z,98849.72
2023-05-25T09:54:23.955Z,98839.78
2023-05-25T09:57:15.427Z,98837.94
2023-05-25T10:00:05.461Z,98836.50
2023-05-25T10:02:54.532Z,98838.94
2023-05-25T10:05:42.509Z,98833.13
2023-05-25T10:08:32.165Z,98848.22
2023-05-25T10:11:24.005Z,98848.75
2023-05-25T10:14:16.312Z,98833.91
2023-05-25T10:17:10.103Z,98843.63
2023-05-25T10:20:01.743Z,98842.47
2023-05-25T10:22:58.216Z,98841.84
2023-05-25T10:26:15.181Z,98835.56
2023-05-25T10:29:05.765Z,98835.91
2023-05-25T10:31:55.329Z,98835.56
2023-05-25T10:34:43.528Z,98842.00
2023-05-25T10:37:34.649Z,98839.38
2023-05-25T10:40:31.598Z,98827.50
2023-05-25T10:43:22.232Z,98826.09
2023-05-25T10:46:10.929Z,98821.25
2023-05-25T10:49:02.409Z,98829.03
2023-05-25T10:52:00.474Z,98830.31
2023-05-25T10:54:49.193Z,98824.28
2023-05-25T10:57:37.284Z,98823.84
2023-05-25T11:00:32.896Z,98815.94
2023-05-25T11:03:20.809Z,98820.28
2023-05-25T11:06:10.436Z,98820.78
2023-05-25T11:09:06.603Z,98819.41
2023-05-25T11:12:05.214Z,98818.63
2023-05-25T11:15:15.281Z,98811.34
2023-05-25T11:18:04.766Z,98809.28
2023-05-25T11:21:14.040Z,98810.81
2023-05-25T11:24:06.867Z,98797.84
2023-05-25T11:27:01.548Z,98807.50
2023-05-25T11:29:52.374Z,98808.38
2023-05-25T11:32:50.842Z,98805.31
2023-05-25T11:35:40.168Z,98806.97
2023-05-25T11:38:28.587Z,98800.91
2023-05-25T11:41:20.000Z,98811.59
2023-05-25T11:44:08.720Z,98787.22
2023-05-25T11:46:58.102Z,98792.28
2023-05-25T11:49:49.805Z,98795.06
2023-05-25T11:52:38.656Z,98797.88
2023-05-25T11:55:26.516Z,98797.31
2023-05-25T11:58:14.017Z,98794.56
2023-05-25T12:01:18.812Z,98784.69
2023-05-25T12:04:11.488Z,98790.81
2023-05-25T12:07:07.890Z,98796.59
2023-05-25T12:10:08.931Z,98785.41
2023-05-25T12:12:58.476Z,98783.28
2023-05-25T12:15:47.281Z,98781.53
2023-05-25T12:18:35.639Z,98783.81
2023-05-25T12:21:24.550Z,98774.84
2023-05-25T12:24:13.722Z,98767.47
2023-05-25T12:27:06.637Z,98775.63
2023-05-25T12:29:54.441Z,98775.75
2023-05-25T12:33:04.080Z,98759.31
2023-05-25T12:35:53.430Z,98759.56
2023-05-25T12:38:40.963Z,98758.50
2023-05-25T12:41:29.391Z,98756.53
2023-05-25T12:44:25.425Z,98760.31
2023-05-25T12:47:15.967Z,98751.63
2023-05-25T12:50:14.776Z,98749.50
2023-05-25T12:53:04.061Z,98752.78
2023-05-25T12:56:01.252Z,98740.22
2023-05-25T12:58:56.468Z,98742.38
2023-05-25T13:01:45.745Z,98747.34
2023-05-25T13:04:33.932Z,98748.72
2023-05-25T13:07:22.699Z,98738.56
2023-05-25T13:10:11.774Z,98734.16
2023-05-25T13:12:59.769Z,98738.56
2023-05-25T13:15:47.393Z,98738.00
2023-05-25T13:18:36.638Z,98729.22
2023-05-25T13:21:24.101Z,98735.53
2023-05-25T13:24:11.764Z,98727.03
2023-05-25T13:26:59.548Z,98732.50
2023-05-25T13:29:47.441Z,98722.66
2023-05-25T13:32:35.482Z,98730.06
2023-05-25T13:35:37.588Z,98727.59
2023-05-25T13:38:26.149Z,98726.47
2023-05-25T13:41:13.660Z,98726.22
2023-05-25T13:44:01.280Z,98727.31
2023-05-25T13:46:48.951Z,98711.09
2023-05-25T13:49:36.687Z,98721.25
2023-05-25T13:52:26.844Z,98722.59
2023-05-25T13:55:14.213Z,98709.91
2023-05-25T13:58:01.830Z,98711.44
2023-05-25T14:00:49.867Z,98702.13
2023-05-25T14:03:38.531Z,98703.00
2023-05-25T14:06:26.690Z,98704.06
2023-05-25T14:09:16.328Z,98700.88
2023-05-25T14:12:04.099Z,98693.41
2023-05-25T14:14:51.768Z,98697.78
2023-05-25T14:17:39.455Z,98699.47
2023-05-25T14:20:27.600Z,98704.56
2023-05-25T14:23:18.443Z,98693.53
2023-05-25T14:26:07.938Z,98686.19
2023-05-25T14:28:56.227Z,98688.44
2023-05-25T14:31:43.690Z,98696.97
2023-05-25T14:34:31.642Z,98692.22
2023-05-25T14:37:19.234Z,98687.78
2023-05-25T14:40:08.333Z,98684.19
2023-05-25T14:42:56.990Z,98688.81
2023-05-25T14:45:45.048Z,98689.22
2023-05-25T14:48:33.140Z,98681.31
2023-05-25T14:51:20.907Z,98687.69
2023-05-25T14:54:08.726Z,98686.03
2023-05-25T14:56:56.581Z,98684.19
2023-05-25T14:59:48.278Z,98689.88
2023-05-25T15:02:36.149Z,98682.50
2023-05-25T15:05:25.993Z,98688.28
2023-05-25T15:08:13.709Z,98685.94
2023-05-25T15:11:01.091Z,98688.47
2023-05-25T15:13:48.950Z,98687.97
2023-05-25T15:16:38.033Z,98683.59
2023-05-25T15:19:25.999Z,98681.72
2023-05-25T15:22:15.680Z,98669.56
2023-05-25T15:25:03.488Z,98679.03
2023-05-25T15:27:51.349Z,98679.78
2023-05-25T15:30:39.292Z,98681.00
2023-05-25T15:33:40.070Z,98667.72
2023-05-25T15:36:36.384Z,98664.72
2023-05-25T15:39:23.968Z,98672.00
2023-05-25T15:42:14.114Z,98675.72
2023-05-25T15:45:02.896Z,98670.56
2023-05-25T15:47:50.745Z,98672.00
2023-05-25T15:50:40.225Z,98672.88
2023-05-25T15:53:27.685Z,98668.06
2023-05-25T15:56:15.328Z,98668.66
2023-05-25T15:59:06.862Z,98673.28
2023-05-25T16:01:54.638Z,98668.09
2023-05-25T16:04:42.344Z,98661.41
2023-05-25T16:07:32.580Z,98657.22
2023-05-25T16:10:20.293Z,98656.91
2023-05-25T16:13:08.325Z,98658.25
2023-05-25T16:15:55.827Z,98657.41
2023-05-25T16:18:43.425Z,98663.63
2023-05-25T16:21:31.131Z,98665.19
2023-05-25T16:24:20.142Z,98658.84
2023-05-25T16:27:08.206Z,98661.75
2023-05-25T16:29:55.916Z,98657.81
2023-05-25T16:32:43.609Z,98659.16
2023-05-25T16:35:31.398Z,98662.25
2023-05-25T16:38:19.140Z,98663.78
2023-05-25T16:41:08.088Z,98662.44
2023-05-25T16:43:55.730Z,98656.47
2023-05-25T16:46:43.513Z,98660.03
2023-05-25T16:49:31.329Z,98664.94
2023-05-25T16:52:18.967Z,98654.00
2023-05-25T16:55:08.271Z,98656.06
2023-05-25T16:57:57.173Z,98648.06
2023-05-25T17:00:45.252Z,98652.63
2023-05-25T17:03:34.236Z,98660.38
2023-05-25T17:06:22.183Z,98662.16
2023-05-25T17:09:11.796Z,98655.56
2023-05-25T17:12:01.173Z,98662.66
2023-05-25T17:14:50.472Z,98663.63
2023-05-25T17:17:38.123Z,98666.34
2023-05-25T17:20:25.989Z,98669.03
2023-05-25T17:23:13.549Z,98672.72
2023-05-25T17:26:01.515Z,98682.84
2023-05-25T17:28:48.988Z,98677.16
2023-05-25T17:31:37.879Z,98679.81
2023-05-25T17:34:28.794Z,98685.47
2023-05-25T17:37:17.302Z,98689.88
2023-05-25T17:40:06.567Z,98683.97
2023-05-25T17:42:54.838Z,98692.88
2023-05-25T17:45:42.619Z,98692.06
2023-05-25T17:48:34.447Z,98690.16
2023-05-25T17:51:22.564Z,98701.56
2023-05-25T17:54:15.285Z,98694.28
2023-05-25T17:57:03.590Z,98713.91
2023-05-25T17:59:51.087Z,98713.03
2023-05-25T18:02:38.973Z,98713.25
2023-05-25T18:05:28.325Z,98711.75
2023-05-25T18:08:16.081Z,98707.38
2023-05-25T18:11:05.257Z,98707.91
2023-05-25T18:13:52.847Z,98716.28
2023-05-25T18:16:41.654Z,98725.25
2023-05-25T18:19:29.679Z,98724.22
2023-05-25T18:22:18.908Z,98726.53
2023-05-25T18:25:07.899Z,98733.66
2023-05-25T18:27:55.386Z,98732.53
2023-05-25T18:30:43.422Z,98738.59
2023-05-25T18:33:31.220Z,98733.69
2023-05-25T18:36:18.897Z,98731.56
2023-05-25T18:39:07.727Z,98739.03
2023-05-25T18:41:55.474Z,98738.94
2023-05-25T18:44:43.017Z,98742.34
2023-05-25T18:47:33.534Z,98749.34
2023-05-25T18:50:21.330Z,98749.66
2023-05-25T18:56:13.426Z,98757.94
2023-05-25T18:59:01.327Z,98759.28
2023-05-25T19:01:49.227Z,98761.81
2023-05-25T19:04:37.714Z,98766.44
2023-05-25T19:07:25.619Z,98772.75
2023-05-25T19:10:13.265Z,98776.50
2023-05-25T19:13:02.069Z,98777.34
2023-05-25T19:15:50.478Z,98781.75
2023-05-25T19:18:38.297Z,98791.09
2023-05-25T19:21:26.554Z,98787.78
2023-05-25T19:24:14.427Z,98804.84
2023-05-25T19:27:01.910Z,98804.59
2023-05-25T19:29:50.774Z,98808.97
2023-05-25T19:32:38.502Z,98811.03
2023-05-25T19:35:26.129Z,98812.47
2023-05-25T19:38:13.887Z,98813.47
2023-05-25T19:41:01.741Z,98819.00
2023-05-25T19:43:49.337Z,98813.34
2023-05-25T19:46:39.772Z,98819.50
2023-05-25T19:49:29.231Z,98820.09
2023-05-25T19:52:18.440Z,98829.19
2023-05-25T19:55:07.323Z,98830.75
2023-05-25T19:57:55.325Z,98827.31
2023-05-25T20:00:42.877Z,98827.47
2023-05-25T20:03:31.965Z,98826.84
2023-05-25T20:06:19.741Z,98841.44
2023-05-25T20:09:07.226Z,98848.47
2023-05-25T20:11:55.190Z,98835.50
2023-05-25T20:14:42.566Z,98853.47
2023-05-25T20:17:30.188Z,98847.31
2023-05-25T20:20:19.180Z,98854.78
2023-05-25T20:23:07.159Z,98860.56
2023-05-25T20:25:54.690Z,98846.34
2023-05-25T20:28:42.219Z,98857.06
2023-05-25T20:31:29.804Z,98864.84
2023-05-25T20:34:17.430Z,98866.41
2023-05-25T20:37:06.580Z,98868.91
2023-05-25T20:39:54.119Z,98873.00
2023-05-25T20:42:41.747Z,98876.53
2023-05-25T20:45:29.326Z,98872.38
2023-05-25T20:48:17.222Z,98880.56
2023-05-25T20:51:05.004Z,98881.09
2023-05-25T20:53:53.992Z,98880.38
2023-05-25T20:56:41.652Z,98875.09
2023-05-25T20:59:31.373Z,98884.75
2023-05-25T21:02:19.324Z,98886.03
2023-05-25T21:05:07.408Z,98890.78
2023-05-25T21:07:55.215Z,98888.56
2023-05-25T21:10:44.087Z,98892.22
2023-05-25T21:13:31.853Z,98899.19
2023-05-25T21:16:19.489Z,98891.19
2023-05-25T21:19:07.301Z,98900.16
2023-05-25T21:21:54.802Z,98904.34
2023-05-25T21:24:42.589Z,98897.66
2023-05-25T21:27:31.737Z,98907.00
2023-05-25T21:30:20.853Z,98911.94
2023-05-25T21:33:08.550Z,98914.41
2023-05-25T21:35:56.261Z,98911.34
2023-05-25T21:38:44.083Z,98919.59
2023-05-25T21:41:31.613Z,98924.72
2023-05-25T21:44:20.621Z,98926.59
2023-05-25T21:47:08.572Z,98929.63
2023-05-25T21:49:57.200Z,98933.66
2023-05-25T21:52:45.080Z,98939.25
2023-05-25T21:55:32.698Z,98936.75
2023-05-25T21:58:20.303Z,98937.00
2023-05-25T22:01:09.661Z,98941.22
2023-05-25T22:03:57.794Z,98938.19
2023-05-25T22:06:45.422Z,98948.94
2023-05-25T22:09:32.906Z,98946.84
2023-05-25T22:12:21.535Z,98950.50
2023-05-25T22:15:10.651Z,98951.38
2023-05-25T22:18:00.282Z,98950.03
2023-05-25T22:20:48.120Z,98952.09
2023-05-25T22:23:36.004Z,98941.72
2023-05-25T22:26:23.834Z,98951.09
2023-05-25T22:29:12.112Z,98955.13
2023-05-25T22:32:00.149Z,98952.81
2023-05-25T22:34:49.402Z,98952.50
2023-05-25T22:37:37.088Z,98964.03
2023-05-25T22:40:24.706Z,98962.03
2023-05-25T22:43:13.177Z,98966.59
2023-05-25T22:46:00.755Z,98963.44
2023-05-25T22:48:48.776Z,98971.47
2023-05-25T22:51:38.030Z,98969.78
2023-05-25T22:54:25.806Z,98966.44
2023-05-25T22:57:13.256Z,98967.63
2023-05-25T23:00:00.760Z,98964.44
2023-05-25T23:02:48.285Z,98964.94
2023-05-25T23:05:35.949Z,98970.63
2023-05-25T23:08:25.200Z,98968.97
2023-05-25T23:11:12.590Z,98976.66
2023-05-25T23:14:00.719Z,98985.69
2023-05-25T23:16:49.368Z,98984.69
2023-05-25T23:19:38.695Z,98983.34
2023-05-25T23:22:26.197Z,98974.50
2023-05-25T23:25:15.329Z,98982.34
2023-05-25T23:28:02.811Z,98974.47
2023-05-25T23:30:50.736Z,98982.81
2023-05-25T23:33:38.249Z,98978.94
2023-05-25T23:36:28.150Z,98987.47
2023-05-25T23:39:16.354Z,98983.63
2023-05-25T23:42:05.606Z,98987.09
2023-05-25T23:44:54.599Z,98985.28
2023-05-25T23:47:42.549Z,98983.91
2023-05-25T23:50:30.509Z,98987.50
2023-05-25T23:53:18.251Z,98990.00
2023-05-25T23:56:06.236Z,98992.16
2023-05-25T23:58:56.889Z,98987.44
